Time;durP1;ratioP1;P1;durP2;ratioP2;P2;SDS_P1;SDS_P2;PMS_P1;PMS_P2;Temp;Humidity;BMP_temperature;BMP_pressure;BME280_temperature;BME280_humidity;BME280_pressure;Samples;Min_cycle;Max_cycle;Signal;HPM_P1;HPM_P2
2022/04/06 13:09:12;;;;;;;;;;;13.60;93.00;;;;;;5165747;27;20296;-57
2022/04/06 13:11:49;;;;;;;5.05;1.30;;;13.70;93.00;;;;;;5143006;27;19930;-57
2022/04/06 13:14:15;;;;;;;6.47;1.17;;;13.70;92.90;;;;;;5131516;28;20035;-56
2022/04/06 13:16:42;;;;;;;5.03;1.05;;;13.70;93.00;;;;;;5131526;28;20040;-56
2022/04/06 13:19:10;;;;;;;4.13;1.23;;;13.70;92.70;;;;;;5130238;28;20048;-55
2022/04/06 13:21:37;;;;;;;4.97;1.30;;;13.80;92.50;;;;;;5128604;27;20432;-54
2022/04/06 13:24:06;;;;;;;5.13;1.45;;;13.90;92.00;;;;;;5131240;27;20047;-59
2022/04/06 13:26:33;;;;;;;5.28;1.50;;;14.10;92.10;;;;;;5130480;27;20061;-58
2022/04/06 13:28:59;;;;;;;6.57;1.30;;;14.30;91.90;;;;;;5131171;27;20378;-55
2022/04/06 13:31:26;;;;;;;7.68;1.65;;;14.40;91.40;;;;;;5131189;27;20043;-51
2022/04/06 13:33:53;;;;;;;8.38;2.00;;;14.50;91.10;;;;;;5131210;27;20038;-52
2022/04/06 13:36:21;;;;;;;10.57;1.60;;;14.60;90.90;;;;;;5131086;27;20053;-54
2022/04/06 13:38:48;;;;;;;9.98;1.63;;;14.70;90.50;;;;;;5130908;27;20550;-52
2022/04/06 13:41:15;;;;;;;6.22;2.20;;;14.60;90.10;;;;;;5130918;27;20039;-58
2022/04/06 13:43:42;;;;;;;10.90;2.20;;;14.70;90.20;;;;;;5130996;27;20077;-55
2022/04/06 13:46:08;;;;;;;9.57;2.28;;;14.80;90.10;;;;;;5130991;28;20051;-55
2022/04/06 13:48:35;;;;;;;4.53;1.50;;;14.90;89.40;;;;;;5130737;27;20031;-53
2022/04/06 13:51:05;;;;;;;6.05;1.50;;;14.80;89.80;;;;;;5130638;27;20548;-54
2022/04/06 13:53:32;;;;;;;8.68;2.15;;;14.90;89.50;;;;;;5130634;27;20558;-54
2022/04/06 13:56:02;;;;;;;8.38;2.10;;;14.90;88.30;;;;;;5126334;27;20225;-58
2022/04/06 13:58:29;;;;;;;7.63;2.00;;;14.80;87.40;;;;;;5117425;28;20102;-55
2022/04/06 14:00:57;;;;;;;7.80;1.95;;;14.90;88.10;;;;;;5129694;27;20039;-56
2022/04/06 14:03:25;;;;;;;7.22;2.03;;;15.00;87.70;;;;;;5126163;27;20687;-55
2022/04/06 14:05:55;;;;;;;7.80;1.95;;;15.10;87.70;;;;;;5128788;28;20229;-58
2022/04/06 14:08:22;;;;;;;8.27;1.75;;;15.00;88.10;;;;;;5129074;27;20051;-58
2022/04/06 14:10:49;;;;;;;7.93;2.33;;;14.90;86.60;;;;;;5130332;27;20935;-57
2022/04/06 14:13:16;;;;;;;11.07;2.38;;;14.70;86.90;;;;;;5129202;27;20441;-56
2022/04/06 14:15:43;;;;;;;9.25;2.35;;;14.60;87.50;;;;;;5129924;28;20035;-55
2022/04/06 14:18:10;;;;;;;10.30;2.42;;;14.60;88.20;;;;;;5123078;28;20053;-55
2022/04/06 14:20:37;;;;;;;10.20;2.15;;;14.70;88.40;;;;;;5115657;27;20122;-54
2022/04/06 14:23:04;;;;;;;9.00;2.60;;;14.70;87.60;;;;;;5115739;28;20493;-57
2022/04/06 14:25:31;;;;;;;7.50;2.30;;;14.60;88.20;;;;;;5114432;28;20036;-55
2022/04/06 14:27:58;;;;;;;8.93;2.00;;;14.60;89.30;;;;;;5116081;28;20044;-57
2022/04/06 14:30:25;;;;;;;11.65;2.05;;;14.50;89.30;;;;;;5116030;28;20383;-56
2022/04/06 14:32:52;;;;;;;10.82;2.58;;;14.60;89.20;;;;;;5114978;28;20448;-55
2022/04/06 14:35:21;;;;;;;12.18;2.60;;;14.50;89.20;;;;;;5115234;28;20044;-56
2022/04/06 14:37:48;;;;;;;11.57;2.75;;;14.40;89.00;;;;;;5115815;28;20067;-58
2022/04/06 14:40:15;;;;;;;12.20;2.80;;;14.20;90.30;;;;;;5115308;28;20405;-57
2022/04/06 14:42:42;;;;;;;15.32;2.53;;;14.00;90.80;;;;;;5115670;28;20089;-57
2022/04/06 14:45:08;;;;;;;13.15;2.97;;;13.80;92.40;;;;;;5115842;28;20165;-58
2022/04/06 14:47:35;;;;;;;10.38;1.20;;;13.40;94.70;;;;;;5115509;28;20115;-57
2022/04/06 14:50:02;;;;;;;6.13;1.45;;;12.50;94.50;;;;;;5097557;28;20062;-56
2022/04/06 14:52:28;;;;;;;4.32;0.95;;;11.50;97.20;;;;;;5115186;27;20047;-53
2022/04/06 14:54:55;;;;;;;6.45;1.20;;;10.90;98.90;;;;;;5115596;28;20042;-53
2022/04/06 14:57:22;;;;;;;5.85;1.20;;;10.60;99.90;;;;;;5115836;28;20067;-53
2022/04/06 14:59:49;;;;;;;4.40;0.95;;;10.30;99.90;;;;;;5115658;28;20092;-54
2022/04/06 15:02:15;;;;;;;7.28;1.10;;;10.10;99.90;;;;;;5114623;28;20043;-52
2022/04/06 15:04:42;;;;;;;2.33;0.93;;;10.00;99.90;;;;;;5115294;28;20038;-57
2022/04/06 15:07:09;;;;;;;3.35;0.60;;;9.90;99.90;;;;;;5115242;28;20630;-55
2022/04/06 15:09:36;;;;;;;3.22;0.90;;;9.80;99.90;;;;;;5108005;28;20535;-48
2022/04/06 15:12:02;;;;;;;4.07;1.00;;;9.80;99.90;;;;;;5108451;28;20044;-49
2022/04/06 15:14:29;;;;;;;2.38;0.80;;;9.90;99.90;;;;;;5114920;28;20412;-56
2022/04/06 15:16:56;;;;;;;5.43;1.10;;;10.10;99.90;;;;;;5114053;28;20059;-57
2022/04/06 15:19:23;;;;;;;5.13;1.25;;;10.30;99.90;;;;;;5114486;28;20126;-53
2022/04/06 15:21:50;;;;;;;4.95;1.30;;;10.50;99.90;;;;;;5114756;28;20362;-58
2022/04/06 15:24:16;;;;;;;3.75;1.13;;;10.60;99.90;;;;;;5114650;28;20126;-52
2022/04/06 15:26:43;;;;;;;8.15;1.27;;;10.70;99.90;;;;;;5113844;28;20043;-57
2022/04/06 15:29:10;;;;;;;6.35;1.75;;;10.90;99.90;;;;;;5114752;28;20543;-55
2022/04/06 15:31:37;;;;;;;8.73;1.67;;;11.10;99.90;;;;;;5113694;28;20044;-53
2022/04/06 15:34:03;;;;;;;9.25;2.15;;;11.30;99.90;;;;;;5113557;28;20043;-55
2022/04/06 15:39:16;;;;;;;7.13;2.17;;;11.50;99.90;;;;;;5114180;28;20435;-54
2022/04/06 15:41:46;;;;;;;19.52;2.85;;;11.70;99.90;;;;;;5114505;28;20038;-55
2022/04/06 15:44:13;;;;;;;12.95;2.92;;;11.60;99.90;;;;;;5108752;28;20039;-50
2022/04/06 15:46:39;;;;;;;15.85;3.08;;;11.60;99.90;;;;;;5113977;28;20043;-52
2022/04/06 15:49:07;;;;;;;11.45;2.40;;;11.60;99.90;;;;;;5114231;28;20542;-52
2022/04/06 15:51:33;;;;;;;13.90;3.63;;;11.60;99.90;;;;;;5113734;28;20040;-49
2022/04/06 15:54:00;;;;;;;15.98;3.92;;;11.60;99.90;;;;;;5105412;27;20032;-57
2022/04/06 15:56:27;;;;;;;12.70;2.55;;;11.70;99.90;;;;;;5113861;28;20035;-51
2022/04/06 15:58:54;;;;;;;18.55;3.75;;;11.70;99.90;;;;;;5113995;28;20067;-55
2022/04/06 16:01:20;;;;;;;13.80;3.38;;;11.80;99.90;;;;;;5114565;28;20039;-55
2022/04/06 16:03:47;;;;;;;13.32;3.38;;;11.90;99.90;;;;;;5114767;28;20073;-52
2022/04/06 16:06:14;;;;;;;12.70;3.40;;;11.90;99.90;;;;;;5114597;28;20086;-49
2022/04/06 16:08:41;;;;;;;11.30;3.05;;;11.90;99.90;;;;;;5113617;28;20466;-55
2022/04/06 16:11:08;;;;;;;16.35;3.35;;;11.70;99.90;;;;;;5114360;28;20043;-58
2022/04/06 16:13:34;;;;;;;14.93;3.15;;;11.70;99.90;;;;;;5114483;28;20092;-56
2022/04/06 16:16:01;;;;;;;19.88;4.28;;;11.60;99.90;;;;;;5108067;28;20116;-50
2022/04/06 16:18:28;;;;;;;16.20;2.88;;;11.60;99.90;;;;;;5106713;28;20044;-52
2022/04/06 16:20:55;;;;;;;13.20;3.05;;;11.50;99.90;;;;;;5114323;28;20394;-55
2022/04/06 16:23:22;;;;;;;16.08;3.67;;;11.50;99.90;;;;;;5113402;28;20043;-52
2022/04/06 16:25:49;;;;;;;17.45;3.38;;;11.60;99.90;;;;;;5114127;28;20089;-55
2022/04/06 16:28:16;;;;;;;14.73;2.90;;;11.70;99.90;;;;;;5114214;28;20466;-51
2022/04/06 16:30:43;;;;;;;17.85;3.80;;;11.70;99.90;;;;;;5114192;28;20032;-54
2022/04/06 16:33:10;;;;;;;24.50;4.15;;;11.60;99.90;;;;;;5114234;28;20126;-51
2022/04/06 16:35:37;;;;;;;18.52;3.72;;;11.70;99.90;;;;;;5113900;28;20036;-55
2022/04/06 16:38:04;;;;;;;19.00;3.88;;;11.80;99.90;;;;;;5112791;28;20047;-51
2022/04/06 16:40:30;;;;;;;17.58;3.38;;;12.20;99.90;;;;;;5113435;28;20043;-52
2022/04/06 16:42:57;;;;;;;14.05;3.45;;;12.40;99.80;;;;;;5112983;28;20067;-51
2022/04/06 16:45:24;;;;;;;18.70;3.03;;;12.40;99.40;;;;;;5114107;28;20088;-57
2022/04/06 16:47:50;;;;;;;15.55;3.95;;;12.50;99.40;;;;;;5113698;28;20040;-53
2022/04/06 16:53:03;;;;;;;16.95;3.17;;;12.80;98.40;;;;;;5113614;28;20093;-56
2022/04/06 16:55:30;;;;;;;20.60;3.58;;;12.60;98.00;;;;;;5113739;28;20071;-55
2022/04/06 16:57:56;;;;;;;14.23;3.00;;;12.30;98.20;;;;;;5113933;28;20110;-56
2022/04/06 17:00:24;;;;;;;12.77;2.78;;;12.10;98.20;;;;;;5113686;28;20470;-54
2022/04/06 17:02:54;;;;;;;13.93;2.95;;;12.00;98.70;;;;;;5113685;28;20396;-53
2022/04/06 17:05:23;;;;;;;14.85;2.85;;;12.00;98.40;;;;;;5113638;28;20067;-55
2022/04/06 17:07:50;;;;;;;13.45;3.08;;;12.00;98.60;;;;;;5113410;28;20071;-53
2022/04/06 17:10:20;;;;;;;14.82;3.65;;;12.20;98.60;;;;;;5112899;28;20036;-54
2022/04/06 17:12:47;;;;;;;20.30;3.00;;;12.10;97.80;;;;;;5113924;28;20040;-53
2022/04/06 17:15:21;;;;;;;13.40;2.72;;;12.00;98.00;;;;;;5112674;28;20074;-57
2022/04/06 17:17:48;;;;;;;10.45;2.65;;;11.80;98.10;;;;;;5113644;28;20044;-57
2022/04/06 17:20:15;;;;;;;13.02;2.80;;;11.70;98.20;;;;;;5113704;28;20050;-56
2022/04/06 17:22:41;;;;;;;13.75;2.90;;;11.60;98.40;;;;;;5113492;28;20044;-48
2022/04/06 17:25:08;;;;;;;16.60;3.00;;;11.50;98.30;;;;;;5113584;28;20036;-52
2022/04/06 17:27:35;;;;;;;15.88;2.95;;;11.50;98.60;;;;;;5113442;28;20040;-50
2022/04/06 17:30:02;;;;;;;12.88;2.55;;;11.40;99.00;;;;;;5113372;28;20058;-51
2022/04/06 17:32:29;;;;;;;14.13;2.92;;;11.40;98.90;;;;;;5113355;28;20522;-51
2022/04/06 17:34:56;;;;;;;15.63;3.38;;;11.40;98.80;;;;;;5113653;28;20480;-49
2022/04/06 17:37:23;;;;;;;13.57;2.53;;;11.40;98.90;;;;;;5112039;28;20546;-51
2022/04/06 17:39:50;;;;;;;15.52;3.15;;;11.40;98.90;;;;;;5113390;28;20062;-49
2022/04/06 17:42:16;;;;;;;14.13;3.45;;;11.30;98.90;;;;;;5112367;28;20070;-50
2022/04/06 17:44:45;;;;;;;13.98;2.72;;;11.30;98.90;;;;;;5113230;28;20393;-50
2022/04/06 17:47:12;;;;;;;13.77;2.90;;;11.30;98.40;;;;;;5113405;28;20042;-53
2022/04/06 17:49:39;;;;;;;13.00;3.00;;;11.30;98.60;;;;;;5113189;28;20040;-51
2022/04/06 17:52:06;;;;;;;12.32;2.67;;;11.30;98.70;;;;;;5113257;28;20501;-54
2022/04/06 17:54:32;;;;;;;14.65;3.28;;;11.30;98.80;;;;;;5114894;28;20047;-54
2022/04/06 17:57:01;;;;;;;19.15;3.80;;;11.20;99.20;;;;;;5110794;28;20040;-57
2022/04/06 17:59:28;;;;;;;16.13;4.18;;;11.20;99.40;;;;;;5110738;28;20047;-55
2022/04/06 18:01:54;;;;;;;15.05;3.38;;;11.10;99.70;;;;;;5110425;28;20046;-52
2022/04/06 18:04:21;;;;;;;17.65;4.50;;;11.00;99.90;;;;;;5117162;28;20440;-55
2022/04/06 18:06:48;;;;;;;17.10;3.20;;;10.90;99.90;;;;;;5115536;28;20042;-55
2022/04/06 18:09:16;;;;;;;15.40;3.17;;;10.80;99.90;;;;;;5116748;28;20062;-52
2022/04/06 18:14:28;;;;;;;10.90;2.67;;;10.60;99.90;;;;;;5116719;28;20035;-55
2022/04/06 18:16:55;;;;;;;12.60;2.85;;;10.50;99.90;;;;;;5116959;28;20404;-55
2022/04/06 18:19:22;;;;;;;20.75;3.75;;;10.50;99.90;;;;;;5116616;28;20047;-52
2022/04/06 18:21:49;;;;;;;19.20;3.60;;;10.50;99.90;;;;;;5112503;28;20035;-53
2022/04/06 18:24:16;;;;;;;21.52;4.63;;;10.50;99.90;;;;;;5115584;28;20047;-52
2022/04/06 18:26:47;;;;;;;15.63;3.60;;;10.50;99.90;;;;;;5116448;28;20040;-57
2022/04/06 18:29:15;;;;;;;18.42;4.05;;;10.40;99.90;;;;;;5116647;28;20470;-55
2022/04/06 18:31:43;;;;;;;21.80;4.65;;;10.40;99.90;;;;;;5116344;28;20090;-52
2022/04/06 18:34:11;;;;;;;24.00;3.90;;;10.40;99.90;;;;;;5116637;27;20059;-55
2022/04/06 18:36:38;;;;;;;25.33;3.53;;;10.40;99.90;;;;;;5116533;28;20112;-52
2022/04/06 18:39:05;;;;;;;18.17;4.38;;;10.40;99.90;;;;;;5116393;28;20043;-53
2022/04/06 18:41:32;;;;;;;19.95;3.70;;;10.40;99.90;;;;;;5116448;28;20114;-52
2022/04/06 18:43:59;;;;;;;21.35;4.18;;;10.40;99.90;;;;;;5116316;28;20138;-54
2022/04/06 18:46:26;;;;;;;15.45;3.70;;;10.40;99.90;;;;;;5114952;28;20043;-55
2022/04/06 18:48:54;;;;;;;19.90;3.75;;;10.40;99.90;;;;;;5116255;28;20071;-55
2022/04/06 18:51:20;;;;;;;19.75;3.75;;;10.40;99.90;;;;;;5108139;28;20043;-51
2022/04/06 18:53:47;;;;;;;19.77;4.10;;;10.40;99.90;;;;;;5115995;28;20043;-52
2022/04/06 18:56:15;;;;;;;19.95;3.72;;;10.40;99.90;;;;;;5115890;28;20110;-57
2022/04/06 18:58:42;;;;;;;24.05;3.80;;;10.40;99.90;;;;;;5116062;27;20061;-55
2022/04/06 19:01:08;;;;;;;15.70;3.58;;;10.40;99.90;;;;;;5115879;27;20040;-53
2022/04/06 19:03:36;;;;;;;23.50;4.38;;;10.40;99.90;;;;;;5116317;28;20549;-53
2022/04/06 19:06:03;;;;;;;19.52;3.88;;;10.30;99.90;;;;;;5114353;28;20042;-57
2022/04/06 19:08:29;;;;;;;20.00;3.97;;;10.30;99.90;;;;;;5114928;28;20052;-55
2022/04/06 19:10:58;;;;;;;20.33;4.53;;;10.30;99.90;;;;;;5115639;28;20040;-56
2022/04/06 19:13:24;;;;;;;19.92;4.40;;;10.20;99.90;;;;;;5115723;28;20043;-55
2022/04/06 19:15:51;;;;;;;14.70;3.13;;;10.20;99.90;;;;;;5115173;28;20370;-59
2022/04/06 19:18:18;;;;;;;19.42;3.38;;;10.20;99.90;;;;;;5114712;28;20050;-56
2022/04/06 19:20:45;;;;;;;20.38;3.60;;;10.20;99.90;;;;;;5114454;28;20063;-55
2022/04/06 19:23:14;;;;;;;16.73;3.40;;;10.20;99.90;;;;;;5115544;28;20463;-56
2022/04/06 19:25:41;;;;;;;22.65;4.38;;;10.20;99.90;;;;;;5115325;28;20097;-51
2022/04/06 19:28:08;;;;;;;20.30;3.20;;;10.20;99.90;;;;;;5115277;28;20040;-54
2022/04/06 19:30:35;;;;;;;15.23;3.80;;;10.20;99.90;;;;;;5114459;28;20032;-55
2022/04/06 19:33:02;;;;;;;19.15;3.35;;;10.20;99.90;;;;;;5115360;28;20067;-56
2022/04/06 19:35:29;;;;;;;22.33;4.03;;;10.20;99.90;;;;;;5108721;28;20072;-55
2022/04/06 19:37:55;;;;;;;18.23;4.40;;;10.20;99.90;;;;;;5108517;28;20043;-56
2022/04/06 19:40:22;;;;;;;20.27;3.75;;;10.20;99.90;;;;;;5107144;28;20050;-52
2022/04/06 19:42:49;;;;;;;22.05;3.85;;;10.20;99.90;;;;;;5114597;28;20039;-51
2022/04/06 19:45:16;;;;;;;15.05;3.60;;;10.20;99.90;;;;;;5115254;28;20485;-56
2022/04/06 19:47:43;;;;;;;20.27;4.47;;;10.10;99.90;;;;;;5114423;28;20035;-53
2022/04/06 19:50:09;;;;;;;22.23;3.88;;;10.10;99.90;;;;;;5113516;28;20551;-53
2022/04/06 19:52:36;;;;;;;18.92;4.30;;;10.00;99.90;;;;;;5114581;28;20074;-56
2022/04/06 19:55:03;;;;;;;18.05;4.40;;;10.10;99.90;;;;;;5114828;28;20398;-52
2022/04/06 19:57:30;;;;;;;19.80;4.05;;;10.00;99.90;;;;;;5114691;28;20043;-51
2022/04/06 19:59:59;;;;;;;20.60;4.53;;;10.00;99.90;;;;;;5113406;28;20076;-54
2022/04/06 20:02:26;;;;;;;21.23;3.63;;;9.80;99.90;;;;;;5114490;28;20050;-51
2022/04/06 20:04:53;;;;;;;20.67;4.20;;;9.80;99.90;;;;;;5114666;28;20122;-50
2022/04/06 20:07:20;;;;;;;15.20;3.63;;;9.80;99.90;;;;;;5114361;28;20056;-55
2022/04/06 20:09:47;;;;;;;14.25;3.20;;;9.90;99.90;;;;;;5113840;27;20067;-54
2022/04/06 20:12:14;;;;;;;18.30;3.50;;;9.80;99.90;;;;;;5114418;28;20044;-55
2022/04/06 20:14:42;;;;;;;16.77;3.70;;;9.80;99.90;;;;;;5109447;28;20462;-56
2022/04/06 20:17:10;;;;;;;17.63;3.75;;;9.80;99.90;;;;;;5111081;28;20501;-55
2022/04/06 20:19:37;;;;;;;18.10;3.95;;;9.80;99.90;;;;;;5114250;28;20048;-55
2022/04/06 20:22:04;;;;;;;16.88;3.05;;;9.80;99.90;;;;;;5114252;28;20043;-57
2022/04/06 20:24:31;;;;;;;15.45;3.60;;;9.80;99.90;;;;;;5114284;28;20067;-55
2022/04/06 20:26:58;;;;;;;14.70;3.20;;;9.70;99.90;;;;;;5108831;28;20052;-50
2022/04/06 20:29:26;;;;;;;15.20;2.78;;;9.70;99.90;;;;;;5107719;28;20071;-56
2022/04/06 20:31:53;;;;;;;17.17;2.78;;;9.70;99.90;;;;;;5092624;28;20048;-54
2022/04/06 20:34:20;;;;;;;14.20;2.50;;;9.60;99.90;;;;;;5112302;28;20085;-52
2022/04/06 20:36:47;;;;;;;13.00;3.30;;;9.50;99.90;;;;;;5114113;28;20043;-54
2022/04/06 20:39:13;;;;;;;14.32;2.38;;;9.50;99.90;;;;;;5114238;28;20074;-53
2022/04/06 20:41:42;;;;;;;10.48;2.28;;;9.50;99.90;;;;;;5113963;28;20054;-50
2022/04/06 20:44:12;;;;;;;12.23;2.72;;;9.40;99.90;;;;;;5113982;28;20036;-53
2022/04/06 20:46:39;;;;;;;15.88;3.13;;;9.40;99.90;;;;;;5112968;28;20040;-58
2022/04/06 20:49:08;;;;;;;16.65;2.80;;;9.40;99.90;;;;;;5113956;28;20036;-56
2022/04/06 20:51:39;;;;;;;15.45;3.13;;;9.40;99.90;;;;;;5112686;28;20047;-50
2022/04/06 20:54:06;;;;;;;12.00;2.75;;;9.40;99.90;;;;;;5095831;28;20043;-52
2022/04/06 20:56:33;;;;;;;11.07;2.20;;;9.40;99.90;;;;;;5095797;28;20064;-54
2022/04/06 20:59:01;;;;;;;10.18;2.38;;;9.40;99.90;;;;;;5113796;27;20508;-57
2022/04/06 21:01:28;;;;;;;13.40;2.60;;;9.40;99.90;;;;;;5113779;28;20085;-56
2022/04/06 21:03:55;;;;;;;10.77;1.92;;;9.30;99.90;;;;;;5114031;28;20044;-53
2022/04/06 21:06:22;;;;;;;12.23;1.92;;;9.40;99.90;;;;;;5113604;28;20036;-53
2022/04/06 21:08:48;;;;;;;9.13;2.20;;;9.30;99.90;;;;;;5112549;28;20043;-54
2022/04/06 21:11:15;;;;;;;9.98;2.00;;;9.30;99.90;;;;;;5112208;28;20036;-53
2022/04/06 21:13:45;;;;;;;13.32;2.80;;;9.40;99.90;;;;;;5113643;28;20070;-53
2022/04/06 21:16:12;;;;;;;13.05;2.40;;;9.40;99.90;;;;;;5112980;28;20149;-56
2022/04/06 21:18:39;;;;;;;13.52;2.55;;;9.40;99.90;;;;;;5113581;28;20401;-51
